Puerto Vallarta, México

3:24 AM CST en Enero 30, 2015 (GMT -0600)
Lic Gustavo Diaz Ordaz International | Change Station
CLOSE
Current Station
Aeropuerto
Location: Puerto Vallarta,
Altura: 20 ft
Estaciones meteorológicas cercanas

Alt 20 ft 20.68 °N, 105.25 °W | Updated 37 minutes ago

Drizzle
Llovizna
73 ° F
Sensación térmica 73 ° F
N
0
Viento Variable Viento desde Norte

Hoy
Alta -- | Baja -- ° F
--% Posibilidad de precipitaciones
Ayer
Alta -- | Baja -- ° F
Precip. -- pul
7:38 AM 6:50 PM
Gibosa creciente, 81% visible
Presión 29.88 pul
Visibilidad 0.5 Millas
Nubes Nublado 600 ft
Punto de rocío 73 ° F
Humedad 100%
Precipitaciones 0.45 pul
Espesor de la nieve No disponible.
UV 0 de una escala de 12
Polen No disponible.
Calidad del aire No disponible.
Flu Activity No disponible.
METAR MMPR 300847Z 00000KT 1/2SM DZ OVC006 23/23 A2988 RMK SLP117 57007 956 60045 8/7// LWR CLDS/ALQDS

More Conditions Fewer Conditions

Presión 29.88 pul
Visibilidad 0.5 Millas
Nubes Nublado 600 ft
Punto de rocío 73 ° F
Humedad 100%
Precipitaciones 0.45 pul
Espesor de la nieve No disponible.
UV 0 de una escala de 12
Polen No disponible.
Calidad del aire No disponible.
Flu Activity No disponible.
METAR MMPR 300847Z 00000KT 1/2SM DZ OVC006 23/23 A2988 RMK SLP117 57007 956 60045 8/7// LWR CLDS/ALQDS

More Conditions Fewer Conditions

10-Day Weather Forecast

Almanac

Astronomía

Jan. 30, 2015 Salida Puesta
Hora real
Crepúsculo civil
Crepúsculo náutico
Crepúsculo astronómico
Luna
Horas de luz
Horas de luz
Tomorrow will be .
, % of the Moon is Illuminated

Extremos de hoy

Máximos del país Bajas del país

Community

WunderPhotos

Upload Photos

1,791,737 ¡fotos cargadas!

WunderBlogs® & News

Nearby

Calidad del aire

  Calidad del aire Índice AQ Contaminante
Not available.

Grosos de nieve

Estación Profundido Altura

Actividad de terremotos

Ciudad Distance Mag. Tiempo y dato
Magnitud mínima muestra es 2,5.

Temperaturas de aguas costeras

Lugar Temperatura

Estaciones meteorológicas cercanas